createdAt,value
2022-11-16T00:00:19.075Z,28.25
2022-11-16T00:01:29.068Z,29.45
2022-11-16T00:02:31.471Z,26.38
2022-11-16T00:03:37.122Z,26.77
2022-11-16T00:04:39.507Z,29.52
2022-11-16T00:05:41.698Z,25.80
2022-11-16T00:06:43.922Z,27.67
2022-11-16T00:07:46.345Z,29.20
2022-11-16T00:09:09.964Z,27.60
2022-11-16T00:10:12.651Z,29.20
2022-11-16T00:11:17.996Z,29.75
2022-11-16T00:12:20.175Z,26.23
2022-11-16T00:13:22.507Z,28.58
2022-11-16T00:14:27.474Z,27.55
2022-11-16T00:15:29.839Z,29.30
2022-11-16T00:16:32.843Z,27.52
2022-11-16T00:17:36.130Z,28.10
2022-11-16T00:18:38.309Z,26.88
2022-11-16T00:19:42.809Z,29.65
2022-11-16T00:20:45.646Z,28.85
2022-11-16T00:21:48.042Z,31.33
2022-11-16T00:22:50.190Z,27.40
2022-11-16T00:23:52.780Z,29.08
2022-11-16T00:24:54.907Z,29.25
2022-11-16T00:26:02.871Z,28.70
2022-11-16T00:27:05.243Z,28.50
2022-11-16T00:28:07.941Z,28.20
2022-11-16T00:29:21.884Z,30.83
2022-11-16T00:30:24.099Z,26.63
2022-11-16T00:31:30.011Z,29.70
2022-11-16T00:32:33.495Z,31.80
2022-11-16T00:33:39.084Z,29.48
2022-11-16T00:34:41.773Z,29.55
2022-11-16T00:35:43.925Z,32.45
2022-11-16T00:36:46.926Z,30.33
2022-11-16T00:37:51.189Z,30.73
2022-11-16T00:38:56.333Z,29.80
2022-11-16T00:39:58.524Z,31.05
2022-11-16T00:41:00.871Z,30.27
2022-11-16T00:42:05.797Z,30.67
2022-11-16T00:43:08.004Z,30.38
2022-11-16T00:44:12.997Z,30.88
2022-11-16T00:45:15.261Z,29.05
2022-11-16T00:46:17.449Z,28.80
2022-11-16T00:47:22.406Z,31.00
2022-11-16T00:48:24.792Z,29.92
2022-11-16T00:49:27.285Z,30.83
2022-11-16T00:50:29.670Z,31.27
2022-11-16T00:51:32.409Z,30.67
2022-11-16T00:52:37.306Z,30.42
2022-11-16T00:53:39.952Z,32.83
2022-11-16T00:54:42.895Z,32.80
2022-11-16T00:55:46.535Z,33.83
2022-11-16T00:56:50.557Z,36.10
2022-11-16T00:57:55.842Z,33.05
2022-11-16T00:59:00.000Z,34.92
2022-11-16T01:00:06.831Z,34.20
2022-11-16T01:01:11.648Z,33.38
2022-11-16T01:02:14.039Z,31.67
2022-11-16T01:03:19.505Z,31.98
2022-11-16T01:04:22.097Z,34.13
2022-11-16T01:05:24.614Z,36.50
2022-11-16T01:06:26.797Z,31.80
2022-11-16T01:07:31.278Z,34.28
2022-11-16T01:08:35.361Z,32.13
2022-11-16T01:09:37.946Z,37.35
2022-11-16T01:10:41.424Z,32.65
2022-11-16T01:12:04.614Z,37.70
2022-11-16T01:13:07.443Z,31.35
2022-11-16T01:14:11.044Z,30.02
2022-11-16T01:15:13.644Z,28.65
2022-11-16T01:16:17.919Z,30.85
2022-11-16T01:17:20.069Z,36.20
2022-11-16T01:18:22.603Z,34.85
2022-11-16T01:19:24.790Z,31.17
2022-11-16T01:20:29.448Z,33.65
2022-11-16T01:21:34.734Z,29.95
2022-11-16T01:22:38.351Z,34.88
2022-11-16T01:23:40.677Z,33.50
2022-11-16T01:24:42.882Z,30.73
2022-11-16T01:25:45.230Z,30.67
2022-11-16T01:26:47.512Z,29.27
2022-11-16T01:27:49.914Z,33.28
2022-11-16T01:29:00.119Z,27.80
2022-11-16T01:30:09.599Z,29.95
2022-11-16T01:31:14.997Z,27.48
2022-11-16T01:32:17.645Z,29.40
2022-11-16T01:33:23.028Z,32.45
2022-11-16T01:34:26.094Z,28.77
2022-11-16T01:35:33.494Z,30.17
2022-11-16T01:36:36.775Z,35.20
2022-11-16T01:37:40.274Z,34.92
2022-11-16T01:38:44.026Z,36.80
2022-11-16T01:39:49.451Z,33.75
2022-11-16T01:40:52.057Z,35.03
2022-11-16T01:41:57.248Z,37.60
2022-11-16T01:42:59.552Z,41.78
2022-11-16T01:44:02.823Z,34.40
2022-11-16T01:45:27.825Z,35.92
2022-11-16T01:46:32.990Z,45.00
2022-11-16T01:47:36.120Z,38.13
2022-11-16T01:48:38.794Z,39.13
2022-11-16T01:49:46.111Z,39.25
2022-11-16T01:50:50.100Z,40.38
2022-11-16T01:52:02.008Z,41.17
2022-11-16T01:53:10.762Z,40.20
2022-11-16T01:54:22.043Z,38.70
2022-11-16T01:55:33.624Z,37.28
2022-11-16T01:57:03.286Z,36.65
2022-11-16T01:58:28.661Z,46.67
2022-11-16T01:59:41.085Z,44.10
2022-11-16T02:00:52.263Z,40.40
2022-11-16T02:02:17.544Z,38.65
2022-11-16T02:03:21.508Z,41.22
2022-11-16T02:04:27.146Z,38.35
2022-11-16T02:05:42.051Z,37.75
2022-11-16T02:07:14.947Z,39.80
2022-11-16T02:09:03.802Z,42.75
2022-11-16T02:10:46.979Z,39.65
2022-11-16T02:12:04.131Z,43.13
2022-11-16T02:13:29.087Z,45.67
2022-11-16T02:14:51.465Z,45.38
2022-11-16T02:16:06.108Z,40.78
2022-11-16T02:17:48.572Z,47.75
2022-11-16T02:19:06.167Z,42.80
2022-11-16T02:20:34.804Z,47.95
2022-11-16T02:21:45.183Z,42.53
2022-11-16T02:23:15.090Z,43.60
2022-11-16T02:24:20.035Z,41.50
2022-11-16T02:25:25.408Z,43.45
2022-11-16T02:27:04.937Z,42.88
2022-11-16T02:28:29.127Z,43.72
2022-11-16T02:29:33.817Z,42.67
2022-11-16T02:30:38.388Z,40.78
2022-11-16T02:32:05.284Z,48.30
2022-11-16T02:33:13.395Z,47.20
2022-11-16T02:34:21.216Z,50.72
2022-11-16T02:35:39.962Z,43.65
2022-11-16T02:36:47.390Z,50.17
2022-11-16T02:37:58.303Z,47.30
2022-11-16T02:39:07.575Z,47.25
2022-11-16T02:40:12.996Z,48.72
2022-11-16T02:41:20.383Z,53.15
2022-11-16T02:42:34.188Z,49.22
2022-11-16T02:43:43.552Z,54.83
2022-11-16T02:44:49.907Z,48.38
2022-11-16T02:45:55.799Z,53.47
2022-11-16T02:47:03.687Z,50.30
2022-11-16T02:48:14.148Z,54.58
2022-11-16T02:49:19.280Z,50.78
2022-11-16T02:50:23.852Z,51.90
2022-11-16T02:51:30.599Z,52.90
2022-11-16T02:52:36.993Z,52.78
2022-11-16T02:53:59.044Z,51.15
2022-11-16T02:55:01.756Z,53.28
2022-11-16T02:56:05.301Z,52.05
2022-11-16T02:57:07.439Z,58.15
2022-11-16T02:58:12.498Z,51.83
2022-11-16T02:59:17.672Z,51.67
2022-11-16T03:00:30.619Z,51.97
2022-11-16T03:01:38.434Z,52.63
2022-11-16T03:02:56.829Z,53.05
2022-11-16T03:04:08.654Z,53.90
2022-11-16T03:06:43.831Z,48.03
2022-11-16T03:07:52.283Z,50.42
2022-11-16T03:09:21.133Z,56.92
2022-11-16T03:10:49.755Z,49.88
2022-11-16T03:12:02.448Z,48.53
2022-11-16T03:13:12.785Z,47.70
2022-11-16T03:14:20.477Z,50.50
2022-11-16T03:15:23.450Z,53.95
2022-11-16T03:16:37.430Z,47.40
2022-11-16T03:17:44.501Z,48.28
2022-11-16T03:18:50.137Z,54.10
2022-11-16T03:20:06.802Z,52.67
2022-11-16T03:21:21.795Z,50.35
2022-11-16T03:22:31.169Z,50.88
2022-11-16T03:23:33.985Z,49.15
2022-11-16T03:24:36.733Z,46.40
2022-11-16T03:25:47.226Z,52.85
2022-11-16T03:26:58.003Z,54.10
2022-11-16T03:28:23.851Z,54.47
2022-11-16T03:29:55.551Z,55.35
2022-11-16T03:31:04.249Z,50.55
2022-11-16T03:32:20.289Z,49.43
2022-11-16T03:33:28.181Z,54.58
2022-11-16T03:34:35.770Z,52.45
2022-11-16T03:36:03.571Z,55.53
2022-11-16T03:37:09.115Z,52.05
2022-11-16T03:38:15.598Z,53.60
2022-11-16T03:39:29.617Z,52.55
2022-11-16T03:40:34.339Z,56.53
2022-11-16T03:41:41.451Z,56.97
2022-11-16T03:42:46.009Z,53.47
2022-11-16T03:43:49.363Z,51.20
2022-11-16T03:44:52.434Z,53.33
2022-11-16T03:45:55.296Z,51.30
2022-11-16T03:46:57.710Z,53.10
2022-11-16T03:48:00.623Z,54.50
2022-11-16T03:49:03.092Z,51.42
2022-11-16T03:50:11.250Z,52.08
2022-11-16T03:51:15.071Z,47.83
2022-11-16T03:52:19.025Z,49.70
2022-11-16T03:53:23.249Z,53.88
2022-11-16T03:54:26.370Z,52.35
2022-11-16T03:55:28.620Z,51.13
2022-11-16T03:56:30.916Z,53.83
2022-11-16T03:57:33.129Z,52.50
2022-11-16T03:58:35.860Z,51.40
2022-11-16T03:59:38.454Z,51.28
2022-11-16T04:00:40.685Z,50.25
2022-11-16T04:01:46.320Z,53.33
2022-11-16T04:02:49.955Z,52.00
2022-11-16T04:03:55.654Z,49.20
2022-11-16T04:05:17.928Z,52.25
2022-11-16T04:07:59.324Z,53.70
2022-11-16T04:09:10.645Z,50.22
2022-11-16T04:10:33.346Z,51.13
2022-11-16T04:11:54.685Z,51.88
2022-11-16T04:13:17.662Z,53.78
2022-11-16T04:14:41.362Z,51.47
2022-11-16T04:16:05.741Z,50.40
2022-11-16T04:17:37.983Z,54.92
2022-11-16T04:18:59.073Z,53.15
2022-11-16T04:20:19.866Z,56.60
2022-11-16T04:23:19.314Z,53.60
2022-11-16T04:24:25.471Z,52.60
2022-11-16T04:25:31.993Z,51.22
2022-11-16T04:26:58.122Z,53.92
2022-11-16T04:28:16.526Z,52.55
2022-11-16T04:29:27.714Z,54.60
2022-11-16T04:30:50.247Z,52.88
2022-11-16T04:32:12.209Z,51.35
2022-11-16T04:33:33.225Z,52.33
2022-11-16T04:34:55.596Z,50.42
2022-11-16T04:36:20.549Z,48.50
2022-11-16T04:37:41.907Z,50.35
2022-11-16T04:38:44.277Z,51.78
2022-11-16T04:39:46.457Z,51.63
2022-11-16T04:40:48.701Z,52.13
2022-11-16T04:42:09.741Z,53.53
2022-11-16T04:43:12.321Z,53.17
2022-11-16T04:44:18.346Z,47.58
2022-11-16T04:45:42.457Z,52.55
2022-11-16T04:47:04.597Z,49.05
2022-11-16T04:48:08.852Z,48.10
2022-11-16T04:49:12.381Z,50.05
2022-11-16T04:50:14.700Z,47.47
2022-11-16T04:51:17.875Z,51.10
2022-11-16T04:52:20.268Z,48.75
2022-11-16T04:53:27.200Z,45.15
2022-11-16T04:54:43.040Z,46.63
2022-11-16T04:55:45.516Z,46.05
2022-11-16T04:56:49.411Z,48.33
2022-11-16T04:57:51.712Z,44.97
2022-11-16T04:58:55.487Z,46.78
2022-11-16T04:59:57.817Z,45.30
2022-11-16T05:01:00.430Z,46.15
2022-11-16T05:02:10.163Z,46.53
2022-11-16T05:03:26.351Z,44.28
2022-11-16T05:04:28.958Z,45.20
2022-11-16T05:05:31.181Z,44.50
2022-11-16T05:06:35.149Z,44.20
2022-11-16T05:07:37.572Z,46.35
2022-11-16T05:08:46.552Z,46.60
2022-11-16T05:09:51.039Z,46.63
2022-11-16T05:10:54.338Z,46.60
2022-11-16T05:11:56.547Z,48.45
2022-11-16T05:12:58.954Z,46.42
2022-11-16T05:14:02.930Z,44.83
2022-11-16T05:15:07.053Z,44.05
2022-11-16T05:16:09.378Z,45.90
2022-11-16T05:17:12.144Z,48.53
2022-11-16T05:18:14.624Z,46.58
2022-11-16T05:19:35.660Z,44.95
2022-11-16T05:20:56.627Z,43.45
2022-11-16T05:21:59.381Z,43.15
2022-11-16T05:23:01.656Z,44.80
2022-11-16T05:24:27.105Z,46.20
2022-11-16T05:25:34.024Z,42.42
2022-11-16T05:26:40.335Z,44.58
2022-11-16T05:27:42.918Z,45.13
2022-11-16T05:28:45.143Z,46.20
2022-11-16T05:29:49.762Z,44.15
2022-11-16T05:30:54.439Z,45.20
2022-11-16T05:32:00.037Z,47.95
2022-11-16T05:33:02.632Z,44.47
2022-11-16T05:34:10.063Z,46.25
2022-11-16T05:35:12.899Z,44.58
2022-11-16T05:36:15.142Z,45.05
2022-11-16T05:37:19.117Z,43.78
2022-11-16T05:38:21.726Z,45.90
2022-11-16T05:39:28.333Z,47.72
2022-11-16T05:40:33.077Z,45.95
2022-11-16T05:41:36.293Z,46.13
2022-11-16T05:42:38.920Z,44.45
2022-11-16T05:43:41.210Z,47.60
2022-11-16T05:44:49.521Z,45.13
2022-11-16T05:45:52.563Z,42.63
2022-11-16T05:46:56.099Z,43.13
2022-11-16T05:47:58.810Z,44.42
2022-11-16T05:49:01.784Z,43.53
2022-11-16T05:50:04.427Z,44.63
2022-11-16T05:51:12.370Z,46.88
2022-11-16T05:52:14.646Z,45.53
2022-11-16T05:53:19.430Z,43.92
2022-11-16T05:54:27.389Z,44.78
2022-11-16T05:55:31.174Z,44.20
2022-11-16T05:56:35.206Z,46.83
2022-11-16T05:57:38.011Z,47.55
2022-11-16T05:58:40.956Z,44.20
2022-11-16T05:59:43.909Z,47.40
2022-11-16T06:00:47.000Z,48.42
2022-11-16T06:01:50.783Z,46.60
2022-11-16T06:02:53.138Z,51.30
2022-11-16T06:04:03.162Z,50.83
2022-11-16T06:05:07.897Z,48.88
2022-11-16T06:06:10.824Z,49.92
2022-11-16T06:07:13.438Z,49.90
2022-11-16T06:08:16.199Z,52.85
2022-11-16T06:09:18.820Z,52.30
2022-11-16T06:10:21.999Z,52.13
2022-11-16T06:11:28.290Z,48.92
2022-11-16T06:12:34.150Z,47.55
2022-11-16T06:13:36.866Z,49.25
2022-11-16T06:14:39.129Z,50.40
2022-11-16T06:15:41.577Z,50.78
2022-11-16T06:16:45.069Z,47.72
2022-11-16T06:17:47.294Z,49.80
2022-11-16T06:18:50.760Z,49.92
2022-11-16T06:19:54.959Z,52.33
2022-11-16T06:20:57.430Z,48.28
2022-11-16T06:21:59.798Z,51.75
2022-11-16T06:23:04.256Z,48.80
2022-11-16T06:24:09.227Z,49.33
2022-11-16T06:25:12.102Z,46.50
2022-11-16T06:26:17.739Z,47.30
2022-11-16T06:27:21.170Z,49.78
2022-11-16T06:28:23.872Z,50.67
2022-11-16T06:29:26.467Z,52.50
2022-11-16T06:30:29.172Z,52.38
2022-11-16T06:31:31.395Z,52.63
2022-11-16T06:32:36.298Z,50.55
2022-11-16T06:33:39.903Z,50.50
2022-11-16T06:34:49.031Z,52.75
2022-11-16T06:35:51.547Z,53.20
2022-11-16T06:36:57.384Z,50.00
2022-11-16T06:37:59.860Z,49.50
2022-11-16T06:39:02.480Z,50.30
2022-11-16T06:40:11.333Z,50.03
2022-11-16T06:41:17.336Z,52.60
2022-11-16T06:42:23.794Z,53.25
2022-11-16T06:43:27.763Z,55.58
2022-11-16T06:44:30.800Z,50.63
2022-11-16T06:45:36.822Z,53.30
2022-11-16T06:46:40.313Z,50.65
2022-11-16T06:47:42.933Z,54.50
2022-11-16T06:48:45.464Z,56.03
2022-11-16T06:49:49.457Z,51.03
2022-11-16T06:50:56.398Z,52.92
2022-11-16T06:51:58.827Z,54.35
2022-11-16T06:53:01.930Z,49.10
2022-11-16T06:54:06.241Z,54.97
2022-11-16T06:55:09.043Z,47.25
2022-11-16T06:56:15.016Z,50.70
2022-11-16T06:57:26.599Z,50.78
2022-11-16T06:58:31.602Z,51.08
2022-11-16T06:59:34.349Z,50.78
2022-11-16T07:00:36.836Z,52.50
2022-11-16T07:01:39.107Z,48.20
2022-11-16T07:02:47.172Z,51.38
2022-11-16T07:03:52.742Z,49.70
2022-11-16T07:04:59.249Z,48.78
2022-11-16T07:06:11.593Z,52.15
2022-11-16T07:07:16.379Z,52.78
2022-11-16T07:08:19.048Z,54.90
2022-11-16T07:09:21.546Z,52.55
2022-11-16T07:10:24.634Z,55.60
2022-11-16T07:11:28.151Z,55.45
2022-11-16T07:12:30.336Z,56.42
2022-11-16T07:13:35.234Z,50.70
2022-11-16T07:14:38.304Z,53.10
2022-11-16T07:15:43.303Z,54.17
2022-11-16T07:16:45.548Z,58.42
2022-11-16T07:17:47.900Z,55.55
2022-11-16T07:18:50.265Z,56.85
2022-11-16T07:19:52.601Z,57.50
2022-11-16T07:20:55.049Z,53.97
2022-11-16T07:21:57.857Z,53.85
2022-11-16T07:23:01.558Z,56.42
2022-11-16T07:24:04.794Z,57.30
2022-11-16T07:25:08.359Z,55.30
2022-11-16T07:26:11.449Z,52.58
2022-11-16T07:27:34.115Z,51.78
2022-11-16T07:28:36.605Z,54.53
2022-11-16T07:29:39.533Z,52.75
2022-11-16T07:31:10.784Z,54.78
2022-11-16T07:32:13.488Z,51.53
2022-11-16T07:33:39.118Z,53.78
2022-11-16T07:35:13.394Z,49.38
2022-11-16T07:36:16.846Z,53.88
2022-11-16T07:37:19.198Z,55.10
2022-11-16T07:38:21.466Z,57.55
2022-11-16T07:39:23.930Z,58.33
2022-11-16T07:40:26.356Z,58.53
2022-11-16T07:41:28.971Z,55.28
2022-11-16T07:42:45.880Z,55.10
2022-11-16T07:44:01.662Z,54.75
2022-11-16T07:45:08.142Z,55.40
2022-11-16T07:47:44.743Z,55.40
2022-11-16T07:48:57.179Z,57.08
2022-11-16T07:50:26.103Z,55.15
2022-11-16T07:51:28.615Z,57.70
2022-11-16T07:52:51.445Z,59.75
2022-11-16T07:53:57.314Z,55.58
2022-11-16T07:54:59.598Z,57.22
2022-11-16T07:56:04.055Z,59.20
2022-11-16T07:57:08.255Z,54.55
2022-11-16T07:58:10.605Z,60.38
2022-11-16T07:59:14.053Z,56.25
2022-11-16T08:00:21.120Z,56.80
2022-11-16T08:01:33.400Z,55.38
2022-11-16T08:02:35.919Z,56.63
2022-11-16T08:03:39.733Z,52.92
2022-11-16T08:04:42.762Z,53.70
2022-11-16T08:05:45.444Z,57.03
2022-11-16T08:06:50.082Z,61.42
2022-11-16T08:07:53.699Z,54.03
2022-11-16T08:08:59.635Z,56.28
2022-11-16T08:10:02.896Z,53.15
2022-11-16T08:11:08.166Z,56.13
2022-11-16T08:12:10.618Z,53.10
2022-11-16T08:13:13.128Z,54.40
2022-11-16T08:14:19.188Z,54.45
2022-11-16T08:15:24.856Z,54.88
2022-11-16T08:16:27.527Z,58.85
2022-11-16T08:17:38.879Z,59.83
2022-11-16T08:18:44.243Z,56.97
2022-11-16T08:19:46.897Z,53.40
2022-11-16T08:20:51.187Z,58.25
2022-11-16T08:21:53.599Z,60.60
2022-11-16T08:23:01.032Z,56.38
2022-11-16T08:24:06.363Z,55.45
2022-11-16T08:25:12.135Z,56.47
2022-11-16T08:26:19.641Z,58.67
2022-11-16T08:27:28.581Z,57.90
2022-11-16T08:28:33.477Z,58.95
2022-11-16T08:29:35.890Z,54.17
2022-11-16T08:30:40.775Z,58.55
2022-11-16T08:31:44.952Z,57.70
2022-11-16T08:32:49.668Z,60.45
2022-11-16T08:33:52.671Z,61.60
2022-11-16T08:34:56.133Z,62.83
2022-11-16T08:36:02.606Z,58.60
2022-11-16T08:37:04.886Z,63.40
2022-11-16T08:38:15.059Z,59.00
2022-11-16T08:39:17.427Z,59.22
2022-11-16T08:40:19.613Z,60.65
2022-11-16T08:41:23.212Z,62.47
2022-11-16T08:42:25.748Z,66.28
2022-11-16T08:43:31.175Z,58.95
2022-11-16T08:44:33.364Z,59.55
2022-11-16T08:45:40.305Z,58.38
2022-11-16T08:46:42.645Z,60.08
2022-11-16T08:48:03.447Z,59.13
2022-11-16T08:49:08.540Z,54.80
2022-11-16T08:50:10.794Z,56.72
2022-11-16T08:51:18.567Z,56.80
2022-11-16T08:52:26.258Z,59.17
2022-11-16T08:53:30.281Z,55.53
2022-11-16T08:54:32.742Z,56.53
2022-11-16T08:55:35.206Z,55.42
2022-11-16T08:56:37.841Z,55.45
2022-11-16T08:57:40.946Z,55.90
2022-11-16T08:58:55.261Z,54.05
2022-11-16T09:00:00.430Z,54.15
2022-11-16T09:01:14.909Z,52.17
2022-11-16T09:02:25.224Z,51.63
2022-11-16T09:03:27.674Z,53.60
2022-11-16T09:04:35.698Z,49.72
2022-11-16T09:05:39.167Z,50.42
2022-11-16T09:06:41.371Z,52.72
2022-11-16T09:07:45.750Z,52.15
2022-11-16T09:08:47.934Z,53.53
2022-11-16T09:09:50.378Z,50.75
2022-11-16T09:10:52.600Z,52.15
2022-11-16T09:11:55.366Z,50.83
2022-11-16T09:12:57.786Z,49.47
2022-11-16T09:14:00.047Z,49.95
2022-11-16T09:15:02.818Z,51.33
2022-11-16T09:16:05.568Z,49.28
2022-11-16T09:17:07.713Z,47.65
2022-11-16T09:18:10.096Z,49.13
2022-11-16T09:19:12.261Z,49.72
2022-11-16T09:20:14.900Z,50.28
2022-11-16T09:21:24.917Z,51.78
2022-11-16T09:22:27.128Z,50.72
2022-11-16T09:23:29.691Z,47.72
2022-11-16T09:24:32.149Z,48.75
2022-11-16T09:25:34.383Z,49.28
2022-11-16T09:26:36.547Z,49.05
2022-11-16T09:27:38.688Z,49.35
2022-11-16T09:28:41.098Z,47.15
2022-11-16T09:29:43.663Z,46.83
2022-11-16T09:30:48.594Z,46.45
2022-11-16T09:31:50.799Z,45.95
2022-11-16T09:32:53.103Z,47.03
2022-11-16T09:33:58.484Z,44.78
2022-11-16T09:35:00.925Z,43.20
2022-11-16T09:36:08.227Z,44.08
2022-11-16T09:37:10.602Z,45.03
2022-11-16T09:38:17.656Z,43.38
2022-11-16T09:39:31.103Z,45.90
2022-11-16T09:40:37.918Z,45.67
2022-11-16T09:42:08.309Z,50.05
2022-11-16T09:43:50.992Z,43.67
2022-11-16T09:45:08.740Z,44.10
2022-11-16T09:46:13.611Z,46.65
2022-11-16T09:47:22.283Z,44.38
2022-11-16T09:48:25.445Z,44.78
2022-11-16T09:49:40.950Z,44.35
2022-11-16T09:50:56.791Z,44.60
2022-11-16T09:52:12.926Z,45.38
2022-11-16T09:53:18.424Z,44.22
2022-11-16T09:54:27.215Z,43.20
2022-11-16T09:55:43.512Z,42.95
2022-11-16T09:56:49.083Z,41.83
2022-11-16T09:57:55.662Z,43.05
2022-11-16T09:59:12.237Z,43.42
2022-11-16T10:00:22.780Z,43.47
2022-11-16T10:01:40.101Z,44.13
2022-11-16T10:02:47.812Z,44.03
2022-11-16T10:03:55.750Z,41.63
2022-11-16T10:05:04.759Z,42.85
2022-11-16T10:06:16.247Z,43.35
2022-11-16T10:07:27.835Z,41.15
2022-11-16T10:08:33.060Z,40.47
2022-11-16T10:09:36.232Z,38.28
2022-11-16T10:11:11.773Z,39.10
2022-11-16T10:12:22.890Z,37.78
2022-11-16T10:13:37.338Z,39.72
2022-11-16T10:14:48.713Z,37.40
2022-11-16T10:16:13.690Z,37.10
2022-11-16T10:17:24.883Z,36.53
2022-11-16T10:18:50.128Z,34.08
2022-11-16T10:20:19.725Z,33.83
2022-11-16T10:21:40.466Z,35.78
2022-11-16T10:23:18.495Z,35.47
2022-11-16T10:24:53.624Z,34.67
2022-11-16T10:26:32.197Z,33.15
2022-11-16T10:28:02.736Z,33.55
2022-11-16T10:29:23.205Z,32.72
2022-11-16T10:30:25.406Z,32.08
2022-11-16T10:31:54.947Z,32.83
2022-11-16T10:33:10.854Z,31.63
2022-11-16T10:34:29.827Z,30.35
2022-11-16T10:35:44.301Z,31.48
2022-11-16T10:36:46.455Z,31.45
2022-11-16T10:37:50.711Z,31.60
2022-11-16T10:38:55.480Z,32.08
2022-11-16T10:39:58.085Z,31.88
2022-11-16T10:41:14.201Z,31.98
2022-11-16T10:42:41.768Z,29.85
2022-11-16T10:43:45.566Z,29.85
2022-11-16T10:44:55.189Z,29.45
2022-11-16T10:46:09.304Z,30.67
2022-11-16T10:47:38.743Z,28.15
2022-11-16T10:49:03.652Z,28.40
2022-11-16T10:50:32.391Z,28.90
2022-11-16T10:51:34.749Z,29.60
2022-11-16T10:52:37.007Z,29.98
2022-11-16T10:53:41.776Z,30.50
2022-11-16T10:54:44.545Z,29.40
2022-11-16T10:56:02.481Z,30.60
2022-11-16T10:57:13.890Z,29.25
2022-11-16T10:58:16.168Z,28.58
2022-11-16T10:59:19.833Z,29.20
2022-11-16T11:00:48.193Z,28.25
2022-11-16T11:01:53.320Z,27.83
2022-11-16T11:02:55.528Z,29.30
2022-11-16T11:03:57.903Z,26.17
2022-11-16T11:05:23.155Z,25.65
2022-11-16T11:06:26.559Z,26.67
2022-11-16T11:07:33.639Z,24.67
2022-11-16T11:08:36.020Z,26.85
2022-11-16T11:09:41.718Z,28.38
2022-11-16T11:10:58.702Z,28.33
2022-11-16T11:12:22.445Z,26.25
2022-11-16T11:13:27.685Z,27.00
2022-11-16T11:14:32.526Z,27.42
2022-11-16T11:15:35.195Z,26.40
2022-11-16T11:16:38.076Z,24.65
2022-11-16T11:17:42.863Z,26.10
2022-11-16T11:18:45.616Z,24.95
2022-11-16T11:19:57.238Z,27.00
2022-11-16T11:21:08.070Z,24.70
2022-11-16T11:23:25.109Z,24.70
2022-11-16T11:24:43.252Z,24.92
2022-11-16T11:25:53.248Z,25.67
2022-11-16T11:26:59.261Z,25.67
2022-11-16T11:28:22.875Z,25.30
2022-11-16T11:29:31.972Z,24.08
2022-11-16T11:30:35.309Z,25.55
2022-11-16T11:31:47.201Z,26.42
2022-11-16T11:32:50.410Z,28.15
2022-11-16T11:34:00.729Z,28.63
2022-11-16T11:35:03.597Z,29.48
2022-11-16T11:36:18.795Z,30.25
2022-11-16T11:37:34.795Z,31.25
2022-11-16T11:39:00.153Z,29.00
2022-11-16T11:40:23.584Z,31.58
2022-11-16T11:41:32.461Z,34.28
2022-11-16T11:42:34.728Z,31.67
2022-11-16T11:43:37.611Z,32.05
2022-11-16T11:44:54.464Z,33.83
2022-11-16T11:46:02.949Z,35.28
2022-11-16T11:48:41.522Z,34.25
2022-11-16T11:49:50.136Z,35.10
2022-11-16T11:51:02.803Z,33.95
2022-11-16T11:52:26.477Z,34.38
2022-11-16T11:53:47.455Z,35.75
2022-11-16T11:55:57.125Z,33.17
2022-11-16T11:57:03.122Z,33.80
2022-11-16T11:58:06.728Z,33.33
2022-11-16T11:59:15.481Z,32.88
2022-11-16T12:00:18.378Z,33.55
2022-11-16T12:01:51.617Z,32.78
2022-11-16T12:03:12.069Z,33.65
2022-11-16T12:04:44.543Z,33.42
2022-11-16T12:06:28.152Z,33.05
2022-11-16T12:07:46.547Z,31.05
2022-11-16T12:09:00.839Z,31.92
2022-11-16T12:10:12.139Z,31.17
2022-11-16T12:11:34.458Z,33.08
2022-11-16T12:13:13.905Z,29.65
2022-11-16T12:14:16.329Z,31.15
2022-11-16T12:15:45.447Z,31.77
2022-11-16T12:16:53.699Z,30.30
2022-11-16T12:18:04.765Z,31.45
2022-11-16T12:21:01.099Z,29.88
2022-11-16T12:22:09.018Z,31.38
2022-11-16T12:23:30.564Z,30.30
2022-11-16T12:24:35.622Z,31.92
2022-11-16T12:25:40.717Z,30.67
2022-11-16T12:26:46.151Z,30.00
2022-11-16T12:28:08.908Z,30.85
2022-11-16T12:29:37.180Z,30.23
2022-11-16T12:31:01.634Z,30.90
2022-11-16T12:32:27.638Z,28.60
2022-11-16T12:33:33.090Z,28.65
2022-11-16T12:34:41.277Z,27.73
2022-11-16T12:36:12.167Z,28.20
2022-11-16T12:37:14.490Z,29.70
2022-11-16T12:38:34.692Z,29.00
2022-11-16T12:40:09.981Z,29.25
2022-11-16T12:41:31.557Z,30.25
2022-11-16T12:42:56.121Z,27.20
2022-11-16T12:44:05.165Z,29.48
2022-11-16T12:45:37.942Z,29.42
2022-11-16T12:47:04.262Z,29.88
2022-11-16T12:48:31.147Z,28.95
2022-11-16T12:50:01.106Z,29.67
2022-11-16T12:51:09.388Z,27.48
2022-11-16T12:52:34.136Z,29.23
2022-11-16T12:53:58.242Z,30.83
2022-11-16T12:55:26.937Z,28.50
2022-11-16T12:56:48.895Z,27.98
2022-11-16T12:58:26.716Z,27.50
2022-11-16T12:59:47.211Z,26.63
2022-11-16T13:01:02.857Z,26.60
2022-11-16T13:02:30.032Z,28.00
2022-11-16T13:03:32.615Z,28.63
2022-11-16T13:04:47.272Z,27.27
2022-11-16T13:06:39.989Z,29.17
2022-11-16T13:08:12.709Z,27.08
2022-11-16T13:09:36.058Z,27.65
2022-11-16T13:10:43.075Z,27.77
2022-11-16T13:11:54.778Z,26.75
2022-11-16T13:13:36.442Z,25.70
2022-11-16T13:14:48.169Z,24.70
2022-11-16T13:15:52.662Z,23.70
2022-11-16T13:16:57.165Z,24.98
2022-11-16T13:18:01.716Z,23.30
2022-11-16T13:19:06.889Z,23.60
2022-11-16T13:20:45.904Z,22.55
2022-11-16T13:21:55.928Z,22.35
2022-11-16T13:23:18.286Z,23.03
2022-11-16T13:24:26.341Z,21.65
2022-11-16T13:26:00.607Z,22.52
2022-11-16T13:27:23.835Z,21.30
2022-11-16T13:28:36.413Z,22.73
2022-11-16T13:29:50.797Z,21.63
2022-11-16T13:31:19.094Z,21.38
2022-11-16T13:32:34.823Z,20.73
2022-11-16T13:33:51.323Z,21.60
2022-11-16T13:34:54.079Z,21.73
2022-11-16T13:35:56.262Z,22.38
2022-11-16T13:36:58.659Z,23.85
2022-11-16T13:38:01.001Z,20.20
2022-11-16T13:39:04.935Z,21.05
2022-11-16T13:40:07.078Z,21.27
2022-11-16T13:41:36.399Z,21.08
2022-11-16T13:43:00.726Z,20.65
2022-11-16T13:44:10.925Z,20.42
2022-11-16T13:45:21.817Z,20.45
2022-11-16T13:46:57.096Z,21.25
2022-11-16T13:47:58.882Z,19.75
2022-11-16T13:49:01.284Z,20.33
2022-11-16T13:50:06.878Z,20.20
2022-11-16T13:51:18.838Z,20.67
2022-11-16T13:52:24.143Z,19.35
2022-11-16T13:55:15.743Z,19.63
2022-11-16T13:56:25.565Z,19.73
2022-11-16T13:57:34.938Z,18.52
2022-11-16T13:58:44.154Z,20.17
2022-11-16T13:59:48.434Z,19.20
2022-11-16T14:01:16.873Z,19.30
2022-11-16T14:02:36.205Z,17.60
2022-11-16T14:03:40.412Z,19.00
2022-11-16T14:04:56.202Z,18.55
2022-11-16T14:05:58.505Z,20.58
2022-11-16T14:07:01.132Z,19.00
2022-11-16T14:08:37.112Z,18.48
2022-11-16T14:09:49.335Z,18.77
2022-11-16T14:10:51.639Z,19.55
2022-11-16T14:11:53.831Z,18.90
2022-11-16T14:12:57.089Z,20.52
2022-11-16T14:14:01.528Z,19.15
2022-11-16T14:15:15.225Z,18.20
2022-11-16T14:16:20.088Z,19.45
2022-11-16T14:17:50.185Z,19.75
2022-11-16T14:18:53.816Z,19.73
2022-11-16T14:19:56.236Z,18.75
2022-11-16T14:21:43.499Z,20.10
2022-11-16T14:23:17.825Z,20.63
2022-11-16T14:24:29.591Z,18.85
2022-11-16T14:25:40.787Z,20.23
2022-11-16T14:27:01.820Z,19.15
2022-11-16T14:29:39.210Z,19.02
2022-11-16T14:31:10.048Z,19.65
2022-11-16T14:32:28.987Z,19.13
2022-11-16T14:33:34.917Z,18.02
2022-11-16T14:34:43.489Z,19.83
2022-11-16T14:35:52.591Z,20.27
2022-11-16T14:36:55.296Z,20.17
2022-11-16T14:38:00.846Z,19.27
2022-11-16T14:39:25.884Z,20.70
2022-11-16T14:40:28.652Z,19.52
2022-11-16T14:41:30.932Z,20.23
2022-11-16T14:42:54.725Z,19.73
2022-11-16T14:44:00.879Z,21.30
2022-11-16T14:45:16.074Z,21.38
2022-11-16T14:46:35.533Z,21.42
2022-11-16T14:47:39.101Z,21.35
2022-11-16T14:48:46.397Z,19.52
2022-11-16T14:49:48.966Z,21.02
2022-11-16T14:51:11.350Z,20.08
2022-11-16T14:52:16.365Z,19.38
2022-11-16T14:53:20.372Z,20.45
2022-11-16T14:54:45.563Z,20.63
2022-11-16T14:55:47.721Z,20.08
2022-11-16T14:57:00.459Z,19.67
2022-11-16T14:58:22.230Z,18.92
2022-11-16T14:59:24.993Z,18.25
2022-11-16T15:00:30.190Z,18.25
2022-11-16T15:01:42.321Z,17.77
2022-11-16T15:02:53.628Z,18.40
2022-11-16T15:04:04.686Z,18.05
2022-11-16T15:05:07.301Z,18.30
2022-11-16T15:06:09.549Z,17.95
2022-11-16T15:07:14.493Z,17.80
2022-11-16T15:08:23.716Z,17.08
2022-11-16T15:09:34.121Z,17.83